MiSS Claudia — V7VA5 — position and weather

sailwx.info

Track history (hours):
 
Tides and Currents Weather Stations Pressure Air Temp Water Temp Dewpoint Dewpoint Depression Visibility Wind Speed Wind Dir Waves Ship Positions

MiSS Claudia

Last reported at 2017-Dec-03 14:50 UTC. Time now 2017-Dec-16 05:12 UTC.
Position N 29°04' W 094°44'.
Warning: this ship's position is 12 days out of date.

Length 175 m; draft 10 m.

Type: Ship. MMSI: 538004072.

Date/timePositionNaut miles runAvg speedWind from/ knotsBaromVisibWave heightAir tempDewpointWater temp
2017-Dec-03 14:50N 29°04' W 094°44'0 0.0
2017-Dec-03 14:25N 29°04' W 094°44'0 0.1
2017-Dec-03 13:58N 29°04' W 094°44'0 0.0
2017-Dec-03 11:20N 29°04' W 094°44'0 0.0
2017-Dec-03 10:06N 29°04' W 094°44'0 0.1
2017-Dec-03 10:00N 29°04' W 094°44'0 0.0
2017-Dec-03 09:17N 29°04' W 094°44'0 0.0
2017-Dec-03 08:08N 29°04' W 094°44'0 0.0
2017-Dec-03 07:59N 29°04' W 094°44'0 0.0
2017-Dec-03 07:18N 29°04' W 094°44'0 0.0
2017-Dec-03 06:51N 29°04' W 094°44'0 0.0
2017-Dec-03 06:29N 29°04' W 094°44'0 0.0
2017-Dec-03 05:43N 29°04' W 094°44'0 0.0
2017-Dec-03 05:22N 29°04' W 094°44'0 0.0
2017-Dec-03 04:40N 29°04' W 094°44'0 0.1
2017-Dec-03 04:30N 29°04' W 094°44'0 0.0
2017-Dec-03 04:00N 29°04' W 094°44'4 2.9
2017-Dec-03 02:32N 29°02' W 094°40'1 7.1
2017-Dec-03 02:20N 29°01' W 094°39'3 7.0
2017-Dec-03 01:59N 28°59' W 094°37'4 3.6
2017-Dec-03 00:50N 28°56' W 094°33'0 0.0
2017-Dec-03 00:27N 28°56' W 094°33'0 0.0
2017-Dec-03 00:00N 28°56' W 094°33'0 0.0
2017-Dec-02 23:22N 28°56' W 094°33'0 0.0
2017-Dec-02 21:41N 28°56' W 094°33'  
2017-Nov-30 12:36N 29°10' W 093°45'0 0.0
2017-Nov-30 12:15N 29°10' W 093°45'0 0.1
2017-Nov-30 11:54N 29°10' W 093°45'0 0.0
2017-Nov-30 11:30N 29°10' W 093°45'1 0.1
2017-Nov-30 00:54N 29°09' W 093°45'0 0.2
2017-Nov-30 00:29N 29°09' W 093°45'2 2.4
2017-Nov-29 23:43N 29°09' W 093°47'0 0.7
2017-Nov-29 23:31N 29°09' W 093°47'0 0.5
2017-Nov-29 23:00N 29°09' W 093°47'610.1
2017-Nov-29 22:22N 29°06' W 093°54'  
Track history (hours):
 
Tides and Currents Weather Stations Pressure Air Temp Water Temp Dewpoint Dewpoint Depression Visibility Wind Speed Wind Dir Waves Ship Positions

MiSS Claudia

Last reported at 2017-Dec-03 14:50 UTC. Time now 2017-Dec-16 05:12 UTC.
Position N 29°04' W 094°44'.
Warning: this ship's position is 12 days out of date.

Length 175 m; draft 10 m.

Type: Ship. MMSI: 538004072.

Date/timePositionNaut miles runAvg speedWind from/ knotsBaromVisibWave heightAir tempDewpointWater temp
2017-Dec-03 14:50N 29°04' W 094°44'0 0.0
2017-Dec-03 14:25N 29°04' W 094°44'0 0.1
2017-Dec-03 13:58N 29°04' W 094°44'0 0.0
2017-Dec-03 11:20N 29°04' W 094°44'0 0.0
2017-Dec-03 10:06N 29°04' W 094°44'0 0.1
2017-Dec-03 10:00N 29°04' W 094°44'0 0.0
2017-Dec-03 09:17N 29°04' W 094°44'0 0.0
2017-Dec-03 08:08N 29°04' W 094°44'0 0.0
2017-Dec-03 07:59N 29°04' W 094°44'0 0.0
2017-Dec-03 07:18N 29°04' W 094°44'0 0.0
2017-Dec-03 06:51N 29°04' W 094°44'0 0.0
2017-Dec-03 06:29N 29°04' W 094°44'0 0.0
2017-Dec-03 05:43N 29°04' W 094°44'0 0.0
2017-Dec-03 05:22N 29°04' W 094°44'0 0.0
2017-Dec-03 04:40N 29°04' W 094°44'0 0.1
2017-Dec-03 04:30N 29°04' W 094°44'0 0.0
2017-Dec-03 04:00N 29°04' W 094°44'4 2.9
2017-Dec-03 02:32N 29°02' W 094°40'1 7.1
2017-Dec-03 02:20N 29°01' W 094°39'3 7.0
2017-Dec-03 01:59N 28°59' W 094°37'4 3.6
2017-Dec-03 00:50N 28°56' W 094°33'0 0.0
2017-Dec-03 00:27N 28°56' W 094°33'0 0.0
2017-Dec-03 00:00N 28°56' W 094°33'0 0.0
2017-Dec-02 23:22N 28°56' W 094°33'0 0.0
2017-Dec-02 21:41N 28°56' W 094°33'  
2017-Nov-30 12:36N 29°10' W 093°45'0 0.0
2017-Nov-30 12:15N 29°10' W 093°45'0 0.1
2017-Nov-30 11:54N 29°10' W 093°45'0 0.0
2017-Nov-30 11:30N 29°10' W 093°45'1 0.1
2017-Nov-30 00:54N 29°09' W 093°45'0 0.2
2017-Nov-30 00:29N 29°09' W 093°45'2 2.4
2017-Nov-29 23:43N 29°09' W 093°47'0 0.7
2017-Nov-29 23:31N 29°09' W 093°47'0 0.5
2017-Nov-29 23:00N 29°09' W 093°47'610.1
2017-Nov-29 22:22N 29°06' W 093°54'  

Dump ship's entire track history